Time;durP1;ratioP1;P1;durP2;ratioP2;P2;SDS_P1;SDS_P2;PMS_P1;PMS_P2;Temp;Humidity;BMP_temperature;BMP_pressure;BME280_temperature;BME280_humidity;BME280_pressure;Samples;Min_cycle;Max_cycle;Signal;HPM_P1;HPM_P2
2024/04/26 00:00:11;;;;;;;1.67;0.90;;;;;;;12.58;100.00;104097.00;5417034;26;19999;-69
2024/04/26 00:02:36;;;;;;;1.40;1.00;;;;;;;13.10;100.00;104156.53;5447319;26;20333;-69
2024/04/26 00:05:02;;;;;;;1.52;1.10;;;;;;;13.21;100.00;104109.13;5416930;26;20002;-68
2024/04/26 00:07:28;;;;;;;1.58;1.00;;;;;;;12.41;100.00;103989.31;5448940;26;20091;-68
2024/04/26 00:09:53;;;;;;;1.05;0.95;;;;;;;12.81;100.00;104033.03;5416757;26;20037;-68
2024/04/26 00:12:19;;;;;;;2.88;1.02;;;;;;;13.13;100.00;104056.97;5448058;26;20022;-69
2024/04/26 00:14:44;;;;;;;1.38;1.20;;;;;;;12.69;100.00;103958.63;5416827;26;20427;-68
2024/04/26 00:17:10;;;;;;;1.10;1.00;;;;;;;12.71;100.00;103966.34;5448030;26;20075;-68
2024/04/26 00:19:35;;;;;;;1.50;1.30;;;;;;;12.89;100.00;103987.28;5448267;26;20105;-68
2024/04/26 00:22:01;;;;;;;1.50;1.10;;;;;;;12.45;100.00;103934.09;5446913;26;20013;-69
2024/04/26 00:24:26;;;;;;;1.85;1.35;;;;;;;12.88;100.00;103955.75;5416282;26;20326;-68
2024/04/26 00:26:52;;;;;;;1.25;1.05;;;;;;;11.81;100.00;103812.38;5417061;26;20003;-68
2024/04/26 00:29:17;;;;;;;2.67;1.23;;;;;;;13.12;100.00;103988.78;5414879;26;20003;-68
2024/04/26 00:31:43;;;;;;;1.77;1.20;;;;;;;12.60;100.00;103968.56;5448013;26;20148;-68
2024/04/26 00:34:08;;;;;;;0.90;0.80;;;;;;;12.28;100.00;103897.03;5416233;26;20322;-69
2024/04/26 00:36:39;;;;;;;2.92;1.10;;;;;;;12.27;100.00;103882.53;5413093;26;20458;-69
2024/04/26 00:39:04;;;;;;;2.60;1.30;;;;;;;12.82;100.00;103945.38;5415737;26;20025;-69
2024/04/26 00:41:30;;;;;;;1.77;1.10;;;;;;;12.13;100.00;103865.16;5447968;26;20325;-68
2024/04/26 00:43:59;;;;;;;2.15;1.02;;;;;;;12.50;100.00;103907.88;5415925;26;20006;-68
2024/04/26 00:46:25;;;;;;;1.15;0.90;;;;;;;12.20;100.00;103849.19;5444900;26;20009;-68
2024/04/26 00:48:51;;;;;;;1.45;1.20;;;;;;;12.65;100.00;103920.19;5445518;26;20452;-68
2024/04/26 00:51:18;;;;;;;1.17;1.08;;;;;;;12.16;100.00;103833.78;5447139;26;20003;-68
2024/04/26 00:53:43;;;;;;;1.35;1.10;;;;;;;12.63;100.00;103871.66;5447908;26;19999;-68
2024/04/26 00:56:09;;;;;;;1.10;0.98;;;;;;;12.39;100.00;103872.66;5414270;26;20014;-68
2024/04/26 00:58:38;;;;;;;2.00;1.15;;;;;;;12.79;100.00;103957.19;5415381;26;20064;-68
2024/04/26 01:01:04;;;;;;;2.38;1.10;;;;;;;11.97;100.00;103819.63;5413326;26;20014;-68
2024/04/26 01:03:29;;;;;;;1.08;0.80;;;;;;;11.85;100.00;103749.56;5447658;26;19995;-68
2024/04/26 01:05:55;;;;;;;3.05;1.00;;;;;;;12.66;100.00;103927.91;5414209;26;20030;-68
2024/04/26 01:08:20;;;;;;;1.73;1.08;;;;;;;12.24;100.00;103829.72;5447343;26;20090;-68
2024/04/26 01:10:46;;;;;;;1.73;1.10;;;;;;;11.84;100.00;103786.97;5447061;26;20047;-69
2024/04/26 01:13:11;;;;;;;2.53;1.15;;;;;;;12.04;100.00;103841.09;5446792;26;19994;-69
2024/04/26 01:15:37;;;;;;;2.05;1.00;;;;;;;12.66;100.00;103887.03;5445609;26;20027;-68
2024/04/26 01:18:02;;;;;;;1.92;1.00;;;;;;;12.78;100.00;103917.13;5391342;26;19996;-68
2024/04/26 01:20:28;;;;;;;1.80;1.20;;;;;;;11.97;100.00;103767.75;5432727;26;20060;-68
2024/04/26 01:22:58;;;;;;;2.13;1.10;;;;;;;12.50;100.00;103861.91;5431845;26;20021;-68
2024/04/26 01:25:23;;;;;;;3.28;1.15;;;;;;;12.43;100.00;103785.16;5425627;26;20071;-68
2024/04/26 01:27:49;;;;;;;2.70;1.23;;;;;;;11.98;100.00;103732.06;5428753;26;19995;-69
2024/04/26 01:30:16;;;;;;;1.40;1.23;;;;;;;11.67;100.00;103709.13;5431504;26;20394;-68
2024/04/26 01:32:42;;;;;;;1.98;1.33;;;;;;;12.17;100.00;103825.28;5389513;26;19998;-68
2024/04/26 01:35:08;;;;;;;1.38;1.27;;;;;;;12.11;100.00;103808.13;5428889;26;20013;-68
2024/04/26 01:37:33;;;;;;;1.50;1.13;;;;;;;12.06;100.00;103827.53;5416231;26;20006;-68
2024/04/26 01:39:58;;;;;;;2.22;1.40;;;;;;;12.19;100.00;103854.25;5446677;26;20007;-68
2024/04/26 01:42:28;;;;;;;2.00;1.30;;;;;;;11.60;100.00;103740.34;5415205;26;20018;-69
2024/04/26 01:44:53;;;;;;;2.67;1.15;;;;;;;12.27;100.00;103860.44;5415315;26;20077;-67
2024/04/26 01:47:18;;;;;;;2.05;1.38;;;;;;;11.66;100.00;103716.75;5414912;26;19999;-70
2024/04/26 01:49:44;;;;;;;2.00;1.50;;;;;;;11.67;100.00;103721.88;5415110;26;20007;-68
2024/04/26 01:52:09;;;;;;;1.40;1.30;;;;;;;11.91;100.00;103750.59;5430435;26;20315;-67
2024/04/26 01:54:34;;;;;;;3.40;1.42;;;;;;;12.04;100.00;103765.41;5425295;26;19998;-68
2024/04/26 01:57:00;;;;;;;1.85;1.40;;;;;;;12.51;100.00;103837.28;5459030;26;20321;-68
2024/04/26 01:59:25;;;;;;;1.50;1.40;;;;;;;12.61;100.00;103847.78;5398019;26;20084;-68
2024/04/26 02:01:51;;;;;;;3.95;1.60;;;;;;;11.77;100.00;103712.78;5398169;26;20019;-68
2024/04/26 02:04:16;;;;;;;1.73;1.50;;;;;;;11.78;100.00;103674.59;5426330;26;19995;-68
2024/04/26 02:06:41;;;;;;;2.13;1.33;;;;;;;12.40;100.00;103825.91;5406263;26;19994;-67
2024/04/26 02:09:07;;;;;;;1.80;1.50;;;;;;;11.97;100.00;103702.31;5418159;26;19999;-68
2024/04/26 02:11:36;;;;;;;1.58;1.35;;;;;;;12.33;100.00;103813.81;5449688;26;20348;-68
2024/04/26 02:14:01;;;;;;;1.77;1.30;;;;;;;11.45;100.00;103617.56;5449863;26;20337;-69
2024/04/26 02:16:27;;;;;;;1.70;1.50;;;;;;;11.97;100.00;103675.94;5418033;26;19999;-68
2024/04/26 02:18:52;;;;;;;1.63;1.33;;;;;;;12.15;100.00;103740.19;5449820;26;20357;-69
2024/04/26 02:21:19;;;;;;;2.13;1.58;;;;;;;12.44;100.00;103706.06;5450333;26;20079;-68
2024/04/26 02:23:44;;;;;;;1.92;1.45;;;;;;;12.03;100.00;103659.13;5449703;26;20026;-68
2024/04/26 02:26:19;;;;;;;1.60;1.40;;;;;;;12.49;100.00;103706.19;5449484;26;20017;-68
2024/04/26 02:28:44;;;;;;;1.90;1.60;;;;;;;12.51;100.00;103707.94;5436315;26;20104;-68
2024/04/26 02:31:13;;;;;;;2.47;1.67;;;;;;;12.62;100.00;103701.41;5418266;26;20468;-69
2024/04/26 02:33:40;;;;;;;4.63;1.70;;;;;;;12.31;100.00;103635.13;5418202;26;20014;-68
2024/04/26 02:36:09;;;;;;;3.38;2.10;;;;;;;12.46;100.00;103665.28;5418629;26;20083;-68
2024/04/26 02:38:39;;;;;;;3.05;2.08;;;;;;;12.61;100.00;103657.97;5418435;26;20080;-68
2024/04/26 02:41:05;;;;;;;2.53;2.10;;;;;;;12.34;100.00;103609.69;5449154;26;20075;-68
2024/04/26 02:43:30;;;;;;;3.70;2.67;;;;;;;11.95;100.00;103566.25;5417420;26;20378;-69
2024/04/26 02:45:55;;;;;;;5.65;2.72;;;;;;;11.97;100.00;103600.28;5449966;26;20021;-68
2024/04/26 02:48:21;;;;;;;5.57;3.20;;;;;;;12.23;100.00;103705.53;5449570;26;20003;-68
2024/04/26 02:50:46;;;;;;;6.20;4.32;;;;;;;12.14;100.00;103636.44;5417176;26;20006;-68
2024/04/26 02:53:11;;;;;;;10.23;6.25;;;;;;;11.79;100.00;103587.09;5417223;26;20523;-68
2024/04/26 02:55:37;;;;;;;12.30;8.40;;;;;;;12.58;100.00;103729.38;5417871;26;20003;-68
2024/04/26 02:58:02;;;;;;;8.27;7.30;;;;;;;12.43;100.00;103723.88;5449374;26;20013;-68
2024/04/26 03:00:28;;;;;;;6.95;5.30;;;;;;;12.41;100.00;103746.84;5448456;26;20010;-69
2024/04/26 03:02:54;;;;;;;5.47;4.00;;;;;;;11.96;100.00;103644.47;5417397;26;20444;-68
2024/04/26 03:05:19;;;;;;;5.15;4.20;;;;;;;12.01;100.00;103636.94;5414474;26;20443;-69
2024/04/26 03:07:44;;;;;;;5.57;3.20;;;;;;;12.13;100.00;103672.97;5449017;26;20010;-68
2024/04/26 03:10:10;;;;;;;3.38;3.08;;;;;;;12.66;100.00;103718.50;5415703;26;20048;-69
2024/04/26 03:12:35;;;;;;;3.58;3.10;;;;;;;11.58;100.00;103609.44;5414943;26;20018;-68
2024/04/26 03:15:04;;;;;;;5.80;3.35;;;;;;;12.09;100.00;103671.16;5448297;26;20076;-69
2024/04/26 03:17:29;;;;;;;5.15;2.90;;;;;;;11.04;100.00;103528.97;5447317;26;20341;-70
2024/04/26 03:19:55;;;;;;;4.57;3.38;;;;;;;11.52;100.00;103624.56;5444055;26;19999;-68
2024/04/26 03:22:20;;;;;;;4.35;3.05;;;;;;;11.38;100.00;103604.63;5416401;26;20023;-69
2024/04/26 03:24:46;;;;;;;6.10;2.92;;;;;;;11.86;100.00;103685.88;5416367;26;20370;-68
2024/04/26 03:27:11;;;;;;;3.17;2.70;;;;;;;11.79;100.00;103685.66;5417142;26;20003;-69
2024/04/26 03:29:37;;;;;;;6.28;3.20;;;;;;;11.63;100.00;103655.44;5448374;26;20340;-68
2024/04/26 03:32:03;;;;;;;3.67;2.60;;;;;;;11.89;100.00;103706.34;5416873;26;20361;-68
2024/04/26 03:34:28;;;;;;;3.97;2.63;;;;;;;11.47;100.00;103633.75;5416808;26;20011;-67
2024/04/26 03:36:54;;;;;;;3.40;3.10;;;;;;;12.03;100.00;103773.91;5448473;26;20003;-67
2024/04/26 03:39:19;;;;;;;3.45;3.03;;;;;;;12.03;100.00;103789.19;5416799;26;19995;-67
2024/04/26 03:41:45;;;;;;;4.10;3.47;;;;;;;12.09;100.00;103803.81;5440694;26;20018;-67
2024/04/26 03:44:10;;;;;;;4.50;3.42;;;;;;;11.99;100.00;103754.22;5413012;26;20521;-67
2024/04/26 03:46:40;;;;;;;29.50;20.52;;;;;;;12.20;100.00;103858.56;5412295;26;20083;-68
2024/04/26 03:49:06;;;;;;;30.52;22.90;;;;;;;12.08;100.00;103766.38;5438216;26;19999;-68
2024/04/26 03:51:31;;;;;;;7.70;5.15;;;;;;;11.82;100.00;103744.38;5413093;26;20014;-67
2024/04/26 03:53:56;;;;;;;6.07;3.30;;;;;;;12.30;100.00;103841.81;5413453;26;20416;-67
2024/04/26 03:56:22;;;;;;;4.88;3.08;;;;;;;12.34;100.00;103818.09;5434990;26;20014;-66
2024/04/26 03:58:47;;;;;;;6.82;3.25;;;;;;;11.70;100.00;103760.22;5434273;26;20340;-67
2024/04/26 04:01:13;;;;;;;3.65;3.00;;;;;;;11.70;100.00;103770.41;5438167;26;20042;-67
2024/04/26 04:03:38;;;;;;;5.43;3.08;;;;;;;11.92;100.00;103807.59;5436384;26;19995;-66
2024/04/26 04:06:04;;;;;;;5.95;3.17;;;;;;;11.78;100.00;103784.25;5438218;26;19994;-68
2024/04/26 04:08:29;;;;;;;3.95;3.55;;;;;;;11.52;100.00;103774.94;5409507;26;20170;-67
2024/04/26 04:10:55;;;;;;;3.92;3.28;;;;;;;12.40;100.00;103941.63;5411721;26;20046;-67
2024/04/26 04:13:20;;;;;;;12.48;3.63;;;;;;;12.13;100.00;103897.47;5438174;26;20052;-67
2024/04/26 04:15:46;;;;;;;6.93;4.00;;;;;;;12.72;100.00;104006.34;5411627;26;20007;-67
2024/04/26 04:18:13;;;;;;;8.85;4.68;;;;;;;12.31;100.00;103958.34;5436569;26;19996;-68
2024/04/26 04:20:39;;;;;;;6.78;4.88;;;;;;;12.81;100.00;104068.81;5412831;26;20386;-68
2024/04/26 04:23:05;;;;;;;4.68;3.97;;;;;;;12.62;100.00;104032.44;5411273;26;20409;-67
2024/04/26 04:25:30;;;;;;;5.07;4.05;;;;;;;13.02;100.00;104048.09;5411959;26;20011;-67
2024/04/26 04:27:56;;;;;;;4.30;3.90;;;;;;;12.99;100.00;104042.91;5439633;26;20029;-67
2024/04/26 04:30:21;;;;;;;4.30;3.80;;;;;;;13.46;100.00;104069.75;5433873;26;19999;-67
2024/04/26 04:32:46;;;;;;;5.70;4.70;;;;;;;13.50;100.00;104069.91;5438178;26;20006;-67
2024/04/26 04:35:12;;;;;;;4.47;4.05;;;;;;;13.63;100.00;104033.56;5409862;26;20440;-68
2024/04/26 04:37:37;;;;;;;4.97;4.35;;;;;;;13.54;100.00;104018.00;5436699;26;19995;-70
2024/04/26 04:40:03;;;;;;;4.82;4.32;;;;;;;13.57;100.00;104030.84;5410965;26;20402;-67
2024/04/26 04:42:28;;;;;;;5.95;4.10;;;;;;;13.62;100.00;103984.94;5437191;26;20003;-67
2024/04/26 04:44:54;;;;;;;5.63;4.38;;;;;;;13.57;100.00;103928.56;5439874;26;20445;-66
2024/04/26 04:47:20;;;;;;;9.40;4.70;;;;;;;15.53;100.00;104158.25;5414939;26;20062;-66
2024/04/26 04:49:45;;;;;;;10.90;4.35;;;;;;;15.48;100.00;104106.00;5447008;26;20788;-67
2024/04/26 04:52:10;;;;;;;5.13;4.00;;;;;;;14.36;100.00;103900.44;5447894;26;20017;-68
2024/04/26 04:54:39;;;;;;;4.35;3.95;;;;;;;14.77;100.00;103921.75;5447201;26;19998;-67
2024/04/26 04:57:05;;;;;;;6.10;4.68;;;;;;;15.01;100.00;103876.06;5448163;26;19998;-67
2024/04/26 04:59:31;;;;;;;6.93;5.18;;;;;;;15.18;100.00;103832.72;5447512;26;20002;-69
2024/04/26 05:01:56;;;;;;;7.93;4.15;;;;;;;15.39;100.00;103803.13;5415721;26;19999;-67
2024/04/26 05:04:22;;;;;;;9.15;3.90;;;;;;;15.73;100.00;103748.00;5447837;26;20003;-67
2024/04/26 05:06:47;;;;;;;6.28;4.57;;;;;;;14.74;100.00;103522.00;5414550;26;19999;-68
2024/04/26 05:09:12;;;;;;;5.20;4.55;;;;;;;15.37;100.00;103585.97;5446510;26;20339;-67
2024/04/26 05:11:38;;;;;;;5.82;4.40;;;;;;;15.80;100.00;103566.72;5446775;26;19995;-67
2024/04/26 05:14:03;;;;;;;5.53;4.75;;;;;;;15.18;100.00;103389.19;5443637;26;20079;-67
2024/04/26 05:16:29;;;;;;;5.57;5.07;;;;;;;15.77;100.00;103353.72;5430770;26;19994;-68
2024/04/26 05:18:55;;;;;;;5.63;5.13;;;;;;;16.23;100.00;103293.97;5436587;26;20005;-68
2024/04/26 05:21:20;;;;;;;5.47;4.72;;;;;;;16.11;100.00;103093.69;5446776;26;19999;-68
2024/04/26 05:23:46;;;;;;;5.50;4.78;;;;;;;15.66;100.00;102824.31;5447983;26;19991;-67
2024/04/26 05:26:11;;;;;;;4.43;4.03;;;;;;;15.57;100.00;102591.78;5415888;26;19999;-67
2024/04/26 05:28:36;;;;;;;4.78;4.30;;;;;;;15.81;100.00;102406.06;5414281;26;19998;-68
2024/04/26 05:31:02;;;;;;;4.57;4.18;;;;;;;15.50;100.00;102192.69;5447344;26;20014;-70
2024/04/26 05:33:28;;;;;;;5.32;4.82;;;;;;;15.07;100.00;101976.25;5447094;26;19995;-67
2024/04/26 05:35:53;;;;;;;5.55;4.80;;;;;;;16.26;100.00;102457.72;5415232;26;20002;-68
2024/04/26 05:38:18;;;;;;;4.80;4.25;;;;;;;16.39;100.00;101893.53;5415158;26;20490;-68
2024/04/26 05:40:46;;;;;;;5.32;4.68;;;;;;;16.57;100.00;101817.84;5415508;26;20013;-68
2024/04/26 05:43:15;;;;;;;5.90;4.40;;;;;;;16.37;100.00;101670.22;5446987;26;20006;-67
2024/04/26 05:45:40;;;;;;;7.28;4.50;;;;;;;16.88;100.00;101495.91;5445211;26;20007;-67
2024/04/26 05:48:06;;;;;;;5.10;4.47;;;;;;;16.29;100.00;101394.03;5415118;26;19998;-67
2024/04/26 05:50:31;;;;;;;6.72;5.80;;;;;;;16.61;100.00;101612.28;5415954;26;20017;-68
2024/04/26 05:52:57;;;;;;;5.50;5.00;;;;;;;16.73;100.00;101793.50;5446952;26;19995;-67
2024/04/26 05:55:22;;;;;;;6.82;5.25;;;;;;;17.81;100.00;101882.41;5446229;26;20398;-71
2024/04/26 05:57:48;;;;;;;5.35;4.85;;;;;;;17.65;100.00;101807.38;5413373;26;20112;-68
2024/04/26 06:00:13;;;;;;;6.38;4.88;;;;;;;17.57;100.00;101726.19;5446106;26;19995;-69
2024/04/26 06:02:38;;;;;;;4.93;4.35;;;;;;;17.00;100.00;101821.09;5415179;26;20340;-68
2024/04/26 06:05:09;;;;;;;6.13;5.15;;;;;;;17.21;100.00;103001.66;5415008;26;20071;-67
2024/04/26 06:07:35;;;;;;;7.13;5.05;;;;;;;17.01;100.00;102655.59;5415486;26;19998;-68
2024/04/26 06:10:01;;;;;;;5.38;4.47;;;;;;;16.80;100.00;102532.47;5415896;26;20819;-68
2024/04/26 06:12:26;;;;;;;5.43;4.90;;;;;;;17.48;100.00;102778.50;5444511;26;20018;-68
2024/04/26 06:14:52;;;;;;;6.82;5.72;;;;;;;17.87;100.00;102994.28;5446281;26;20394;-68
2024/04/26 06:17:17;;;;;;;6.15;4.80;;;;;;;17.79;100.00;102299.38;5446294;26;20360;-68
2024/04/26 06:19:43;;;;;;;8.32;4.80;;;;;;;16.53;100.00;102173.22;5414865;26;20433;-69
2024/04/26 06:22:08;;;;;;;6.07;4.30;;;;;;;17.57;100.00;102027.97;5414666;26;20456;-68
2024/04/26 06:24:34;;;;;;;5.15;4.65;;;;;;;17.59;100.00;101431.16;5445991;26;20367;-67
2024/04/26 06:26:59;;;;;;;6.25;5.50;;;;;;;18.59;100.00;101382.91;5412165;26;20417;-70
2024/04/26 06:29:25;;;;;;;4.53;4.07;;;;;;;17.89;100.00;101206.19;5446374;26;20005;-68
2024/04/26 06:31:52;;;;;;;5.40;4.10;;;;;;;18.26;100.00;101376.41;5446295;26;20003;-69
2024/04/26 06:34:18;;;;;;;4.78;4.28;;;;;;;18.38;100.00;101458.34;5446693;26;20003;-68
2024/04/26 06:36:44;;;;;;;5.43;4.30;;;;;;;17.66;100.00;101320.28;5414506;26;20328;-68
2024/04/26 06:39:09;;;;;;;5.28;4.40;;;;;;;18.68;100.00;101312.97;5414190;26;20013;-68
2024/04/26 06:41:34;;;;;;;6.38;4.10;;;;;;;18.60;100.00;101187.94;5446067;26;20021;-67
2024/04/26 06:44:00;;;;;;;5.43;4.60;;;;;;;17.79;100.00;100973.31;5414230;26;20485;-67
2024/04/26 06:46:25;;;;;;;5.30;4.40;;;;;;;17.89;100.00;100822.78;5445936;26;19998;-68
2024/04/26 06:48:51;;;;;;;5.07;4.30;;;;;;;18.42;100.00;100800.59;5414752;26;20465;-67
2024/04/26 06:51:16;;;;;;;6.80;3.78;;;;;;;18.80;100.00;100827.13;5445304;26;19999;-68
2024/04/26 06:53:41;;;;;;;6.05;3.65;;;;;;;18.58;100.00;100734.59;5443916;26;20003;-70
2024/04/26 06:56:07;;;;;;;5.82;4.68;;;;;;;18.58;100.00;100796.41;5428944;26;20456;-67
2024/04/26 06:58:32;;;;;;;4.43;4.03;;;;;;;19.60;100.00;100793.03;5431260;26;19999;-68
2024/04/26 07:00:58;;;;;;;5.32;3.97;;;;;;;19.62;100.00;100708.63;5402352;26;20531;-67
2024/04/26 07:03:23;;;;;;;4.93;3.70;;;;;;;20.06;100.00;100698.47;5417515;26;19998;-67
2024/04/26 07:05:49;;;;;;;5.95;3.72;;;;;;;19.16;100.00;100647.44;5447764;26;20011;-68
2024/04/26 07:08:14;;;;;;;4.60;3.90;;;;;;;19.29;100.00;100637.34;5461184;26;20002;-68
2024/04/26 07:10:42;;;;;;;5.53;4.18;;;;;;;18.64;100.00;100511.94;5446692;26;19999;-68
2024/04/26 07:13:09;;;;;;;6.82;3.90;;;;;;;19.16;100.00;100539.16;5415887;26;20011;-68
2024/04/26 07:15:35;;;;;;;4.18;3.45;;;;;;;19.18;100.00;100487.50;5446366;26;19999;-69
2024/04/26 07:18:00;;;;;;;4.35;3.70;;;;;;;19.58;100.00;100482.66;5447594;26;20010;-68
2024/04/26 07:20:25;;;;;;;4.72;3.53;;;;;;;20.08;100.00;100397.13;5448454;26;19999;-68
2024/04/26 07:22:51;;;;;;;3.55;3.25;;;;;;;19.76;100.00;100329.38;5416434;26;20008;-68
2024/04/26 07:25:17;;;;;;;3.50;3.17;;;;;;;20.02;100.00;100312.28;5417046;26;20449;-68
2024/04/26 07:27:44;;;;;;;5.82;3.38;;;;;;;19.67;100.00;100228.44;5447023;26;20429;-68
2024/04/26 07:30:10;;;;;;;4.55;3.10;;;;;;;19.80;100.00;100292.13;5449462;26;20425;-69
2024/04/26 07:32:35;;;;;;;4.15;3.15;;;;;;;19.52;100.00;100213.91;5417519;26;19995;-69
2024/04/26 07:35:01;;;;;;;6.20;3.67;;;;;;;19.77;100.00;100141.78;5415758;26;20336;-66
2024/04/26 07:37:27;;;;;;;5.90;3.63;;;;;;;19.66;100.00;100186.34;5447981;26;19995;-71
2024/04/26 07:39:52;;;;;;;4.15;3.58;;;;;;;19.73;100.00;100088.72;5417244;26;20048;-69
2024/04/26 07:42:18;;;;;;;3.67;3.38;;;;;;;19.74;100.00;100121.34;5417167;26;19999;-69
2024/04/26 07:44:43;;;;;;;3.75;3.30;;;;;;;20.45;100.00;100212.31;5416889;26;20372;-69
2024/04/26 07:47:13;;;;;;;3.55;3.25;;;;;;;19.93;100.00;100101.19;5445870;26;19995;-68
2024/04/26 07:49:38;;;;;;;6.25;3.20;;;;;;;19.81;100.00;100092.47;5417562;26;20011;-68
2024/04/26 07:52:04;;;;;;;4.10;3.47;;;;;;;21.23;100.00;100058.78;5448679;26;20013;-68
2024/04/26 07:54:29;;;;;;;4.55;3.10;;;;;;;21.32;100.00;99902.91;5449112;26;20006;-68
2024/04/26 07:56:55;;;;;;;4.10;3.30;;;;;;;19.96;100.00;99888.50;5415574;26;19999;-68
2024/04/26 07:59:20;;;;;;;3.63;2.97;;;;;;;21.29;100.00;99808.25;5416101;26;19999;-69
2024/04/26 08:01:45;;;;;;;3.83;3.42;;;;;;;20.43;100.00;99793.13;5448975;26;20014;-68
2024/04/26 08:04:13;;;;;;;3.63;3.10;;;;;;;20.86;100.00;99910.56;5415403;26;20329;-66
2024/04/26 08:06:38;;;;;;;4.68;3.42;;;;;;;19.67;100.00;99859.50;5417132;26;20002;-68
2024/04/26 08:09:04;;;;;;;8.02;3.22;;;;;;;20.79;100.00;99930.03;5416605;26;20002;-67
2024/04/26 08:11:30;;;;;;;4.75;3.08;;;;;;;19.22;100.00;99814.38;5416409;26;20035;-68
2024/04/26 08:13:55;;;;;;;4.00;3.40;;;;;;;21.08;100.00;99832.31;5417064;26;20002;-68
2024/04/26 08:16:21;;;;;;;5.18;3.47;;;;;;;19.96;100.00;99687.19;5416456;26;22495;-67
2024/04/26 08:18:47;;;;;;;3.63;3.22;;;;;;;20.23;100.00;99771.28;5447875;26;20011;-68
2024/04/26 08:21:14;;;;;;;4.03;3.08;;;;;;;21.73;100.00;99672.09;5448144;26;19999;-68
2024/04/26 08:23:39;;;;;;;4.03;3.22;;;;;;;19.68;100.00;99637.56;5448391;26;20006;-68
2024/04/26 08:26:06;;;;;;;3.97;3.33;;;;;;;21.75;100.00;99676.19;5448016;26;20056;-67
2024/04/26 08:28:31;;;;;;;3.97;3.28;;;;;;;22.37;100.00;99735.97;5448044;26;20424;-68
2024/04/26 08:30:58;;;;;;;5.07;3.30;;;;;;;21.63;100.00;99762.53;5447691;26;20002;-67
2024/04/26 08:33:23;;;;;;;3.85;3.40;;;;;;;21.77;100.00;99720.88;5416065;26;19998;-66
2024/04/26 08:35:49;;;;;;;3.70;3.40;;;;;;;20.32;100.00;99749.97;5446966;26;20010;-67
2024/04/26 08:38:14;;;;;;;3.58;3.22;;;;;;;20.43;100.00;99787.94;5415988;26;20010;-67
2024/04/26 08:40:41;;;;;;;3.67;3.38;;;;;;;21.94;100.00;99808.47;5446990;26;19994;-66
2024/04/26 08:43:07;;;;;;;4.32;3.40;;;;;;;20.27;100.00;99834.69;5413503;26;20072;-67
2024/04/26 08:45:36;;;;;;;4.18;3.65;;;;;;;21.31;100.00;99813.34;5445545;26;19998;-67
2024/04/26 08:48:02;;;;;;;5.00;3.40;;;;;;;20.06;100.00;99854.25;5416565;26;20007;-65
2024/04/26 08:50:31;;;;;;;3.63;3.25;;;;;;;22.30;100.00;99799.59;5445467;26;20417;-67
2024/04/26 08:52:58;;;;;;;3.92;3.53;;;;;;;21.36;100.00;100019.00;5415909;26;20019;-67
2024/04/26 08:55:24;;;;;;;4.18;3.30;;;;;;;22.22;100.00;99998.84;5415530;26;20068;-67
2024/04/26 08:57:50;;;;;;;5.05;3.28;;;;;;;21.89;100.00;100072.09;5415203;26;20006;-68
2024/04/26 09:00:16;;;;;;;6.07;3.50;;;;;;;22.44;100.00;100097.34;5446963;26;19995;-68
2024/04/26 09:02:42;;;;;;;4.05;3.30;;;;;;;21.45;100.00;100051.97;5447147;26;20456;-66
2024/04/26 09:05:12;;;;;;;3.28;2.97;;;;;;;20.48;100.00;100276.69;5447715;26;20672;-68
2024/04/26 09:07:37;;;;;;;3.42;3.13;;;;;;;21.06;100.00;100240.13;5446800;26;20493;-68
2024/04/26 09:10:03;;;;;;;3.50;2.72;;;;;;;22.22;100.00;100235.41;5413153;26;20010;-68
2024/04/26 09:12:29;;;;;;;2.97;2.70;;;;;;;22.40;100.00;100269.56;5414291;26;20010;-67
2024/04/26 09:14:55;;;;;;;4.57;3.13;;;;;;;20.82;100.00;100246.94;5447198;26;19995;-68
2024/04/26 09:17:20;;;;;;;3.30;2.90;;;;;;;21.47;100.00;100308.84;5446347;26;20001;-67
2024/04/26 09:19:45;;;;;;;7.78;2.67;;;;;;;22.13;100.00;100183.44;5413646;26;20012;-71
2024/04/26 09:22:11;;;;;;;4.53;2.78;;;;;;;22.78;100.00;100287.53;5446192;26;20009;-71
2024/04/26 09:24:37;;;;;;;2.67;2.40;;;;;;;22.28;100.00;100327.44;5037507;26;10000558;-67
2024/04/26 09:27:03;;;;;;;4.70;3.40;;;;;;;22.21;100.00;100282.16;5441069;26;19995;-69
2024/04/26 09:29:29;;;;;;;2.25;2.00;;;;;;;21.06;100.00;100191.00;5443771;26;20018;-69
2024/04/26 09:32:04;;;;;;;4.38;2.10;;;;;;;22.24;100.00;100277.56;5441397;26;20337;-67
2024/04/26 09:34:33;;;;;;;2.65;2.20;;;;;;;24.00;100.00;100338.72;5410031;26;19999;-68
2024/04/26 09:37:05;;;;;;;3.90;2.90;;;;;;;23.79;100.00;100298.00;5406158;26;20014;-69
2024/04/26 09:39:31;;;;;;;3.78;3.38;;;;;;;22.72;100.00;100262.84;5384111;26;20421;-67
2024/04/26 09:41:58;;;;;;;3.45;3.05;;;;;;;20.11;100.00;100225.66;5413435;26;20369;-68
2024/04/26 09:44:24;;;;;;;2.97;2.60;;;;;;;23.01;100.00;100364.47;5415417;26;20346;-68
2024/04/26 09:46:50;;;;;;;4.05;2.10;;;;;;;22.09;100.00;100392.63;5445742;26;20017;-68
2024/04/26 09:49:15;;;;;;;2.42;2.08;;;;;;;22.88;100.00;100361.09;5448487;26;20353;-68
2024/04/26 09:51:41;;;;;;;2.80;2.50;;;;;;;22.49;100.00;100361.34;5446883;26;20003;-68
2024/04/26 09:54:09;;;;;;;3.13;2.40;;;;;;;22.88;100.00;100371.47;5446848;26;20003;-68
2024/04/26 09:56:36;;;;;;;2.88;2.60;;;;;;;23.20;100.00;100302.50;5415383;26;20013;-69
2024/04/26 09:59:02;;;;;;;3.00;2.70;;;;;;;23.47;100.00;100333.38;5415253;26;19998;-68
2024/04/26 10:01:29;;;;;;;2.70;2.50;;;;;;;22.46;100.00;100278.66;5446685;26;20052;-68
2024/04/26 10:03:55;;;;;;;5.95;3.20;;;;;;;22.97;100.00;100273.09;5415386;26;20030;-68
2024/04/26 10:06:20;;;;;;;4.95;2.80;;;;;;;21.68;100.00;100259.16;5413454;26;20433;-68
2024/04/26 10:08:46;;;;;;;3.15;2.80;;;;;;;23.20;100.00;100363.00;5444279;26;20003;-68
2024/04/26 10:11:13;;;;;;;4.60;3.10;;;;;;;23.15;100.00;100268.28;5446269;26;20871;-68
2024/04/26 10:13:56;;;;;;;3.55;2.72;;;;;;;22.84;100.00;100272.34;5446941;26;20003;-68
2024/04/26 10:16:32;;;;;;;3.22;2.78;;;;;;;23.20;100.00;100386.38;5446366;26;20340;-67
2024/04/26 10:18:58;;;;;;;3.30;2.75;;;;;;;23.52;100.00;100377.97;5413072;26;20056;-66
2024/04/26 10:21:27;;;;;;;3.15;2.83;;;;;;;22.99;100.00;100353.38;5410359;26;20003;-67
2024/04/26 10:24:02;;;;;;;3.22;2.90;;;;;;;22.66;100.00;100361.84;5446178;26;20018;-66
2024/04/26 10:26:28;;;;;;;2.72;2.53;;;;;;;22.82;100.00;100330.47;5413167;26;20033;-67
2024/04/26 10:28:54;;;;;;;4.18;2.50;;;;;;;23.17;100.00;100365.84;5415456;26;20003;-69
2024/04/26 10:31:28;;;;;;;4.07;2.85;;;;;;;23.52;100.00;100373.63;5449931;26;20651;-68
2024/04/26 10:33:53;;;;;;;2.90;2.60;;;;;;;22.14;100.00;100292.13;5450910;26;20003;-67
2024/04/26 10:36:19;;;;;;;2.70;2.50;;;;;;;22.98;100.00;100351.72;5417478;26;20076;-67
2024/04/26 10:38:48;;;;;;;2.72;2.53;;;;;;;23.78;100.00;100366.47;5449585;26;20007;-67
2024/04/26 10:41:18;;;;;;;2.63;2.42;;;;;;;22.86;100.00;100370.75;5417694;26;20075;-67
2024/04/26 10:43:44;;;;;;;3.58;2.65;;;;;;;23.23;100.00;100347.22;5417370;26;20038;-68
2024/04/26 10:46:14;;;;;;;2.97;2.67;;;;;;;23.34;100.00;100281.56;5418089;26;20010;-67
2024/04/26 10:48:40;;;;;;;2.97;2.70;;;;;;;23.29;100.00;100400.44;5450185;26;20021;-67
2024/04/26 10:51:14;;;;;;;3.60;2.90;;;;;;;22.62;100.00;100372.56;5449496;26;20010;-67
2024/04/26 10:53:41;;;;;;;3.78;2.60;;;;;;;23.18;100.00;100387.41;5449398;26;20441;-68
2024/04/26 10:56:15;;;;;;;4.45;3.00;;;;;;;22.52;100.00;100411.22;5418098;26;22454;-67
2024/04/26 10:58:41;;;;;;;3.63;3.08;;;;;;;21.50;100.00;100320.78;5417435;26;20003;-67
2024/04/26 11:01:22;;;;;;;3.38;3.03;;;;;;;23.76;100.00;100382.16;5418202;26;20010;-67
2024/04/26 11:03:55;;;;;;;3.40;3.10;;;;;;;21.94;100.00;100307.41;5417428;26;20003;-68
2024/04/26 11:06:32;;;;;;;2.72;2.42;;;;;;;21.78;100.00;100434.47;5434639;26;20010;-67
2024/04/26 11:09:04;;;;;;;4.15;2.97;;;;;;;23.31;100.00;100398.59;5448381;26;20002;-67
2024/04/26 11:11:30;;;;;;;4.63;2.70;;;;;;;24.06;100.00;100368.63;5447311;26;20398;-67